Terminal Aerodrome Forecast
Issued by NWS Glasgow, MT

Home | Current Version | Previous Version | Text Only | Print | Product List | Glossary On
Versions: 1 2 3 4 5 6 7 8 9 10 11 12 13
801
FTUS45 KGGW 260523
TAFGGW
TAF
KGGW 260523Z 2606/2706 12007KT P6SM BKN070
     FM261000 10006KT P6SM SCT030
     FM261100 10005KT P6SM BKN017
     FM261500 VRB04KT P6SM BKN045
     FM270200 20004KT P6SM SCT080=

USA.gov is the U.S. government's official web portal to all federal, state and local government web resources and services.